sensor_id;sensor_type;location;lat;lon;timestamp;temperature;humidity
25554;DHT22;13446;50.926;5.332;2023-03-19T00:00:24;12.60;99.90
25554;DHT22;13446;50.926;5.332;2023-03-19T00:02:50;12.50;99.90
25554;DHT22;13446;50.926;5.332;2023-03-19T00:05:16;12.50;99.90
25554;DHT22;13446;50.926;5.332;2023-03-19T00:07:42;12.40;99.90
25554;DHT22;13446;50.926;5.332;2023-03-19T00:10:08;12.50;99.90
25554;DHT22;13446;50.926;5.332;2023-03-19T00:12:33;12.30;99.90
25554;DHT22;13446;50.926;5.332;2023-03-19T00:14:59;12.50;99.90
25554;DHT22;13446;50.926;5.332;2023-03-19T00:17:25;12.30;99.90
25554;DHT22;13446;50.926;5.332;2023-03-19T00:19:51;12.30;99.90
25554;DHT22;13446;50.926;5.332;2023-03-19T00:22:16;12.30;99.90
25554;DHT22;13446;50.926;5.332;2023-03-19T00:24:42;12.30;99.90
25554;DHT22;13446;50.926;5.332;2023-03-19T00:27:07;12.20;99.90
25554;DHT22;13446;50.926;5.332;2023-03-19T00:29:33;12.20;99.90
25554;DHT22;13446;50.926;5.332;2023-03-19T00:31:58;12.10;99.90
25554;DHT22;13446;50.926;5.332;2023-03-19T00:34:24;12.10;99.90
25554;DHT22;13446;50.926;5.332;2023-03-19T00:36:50;12.10;99.90
25554;DHT22;13446;50.926;5.332;2023-03-19T00:39:16;12.20;99.90
25554;DHT22;13446;50.926;5.332;2023-03-19T00:41:41;12.20;99.90
25554;DHT22;13446;50.926;5.332;2023-03-19T00:44:15;12.20;99.90
25554;DHT22;13446;50.926;5.332;2023-03-19T00:46:41;12.10;99.90
25554;DHT22;13446;50.926;5.332;2023-03-19T00:49:06;12.30;99.90
25554;DHT22;13446;50.926;5.332;2023-03-19T00:51:32;12.40;99.90
25554;DHT22;13446;50.926;5.332;2023-03-19T00:53:57;12.40;99.90
25554;DHT22;13446;50.926;5.332;2023-03-19T00:56:23;12.50;99.90
25554;DHT22;13446;50.926;5.332;2023-03-19T00:58:48;12.60;99.90
25554;DHT22;13446;50.926;5.332;2023-03-19T01:01:15;12.40;99.90
25554;DHT22;13446;50.926;5.332;2023-03-19T01:03:41;12.50;99.90
25554;DHT22;13446;50.926;5.332;2023-03-19T01:06:06;12.50;99.90
25554;DHT22;13446;50.926;5.332;2023-03-19T01:08:32;12.30;99.90
25554;DHT22;13446;50.926;5.332;2023-03-19T01:11:05;12.30;99.90
25554;DHT22;13446;50.926;5.332;2023-03-19T01:13:31;12.30;99.90
25554;DHT22;13446;50.926;5.332;2023-03-19T01:15:56;12.20;99.90
25554;DHT22;13446;50.926;5.332;2023-03-19T01:18:22;12.30;99.90
25554;DHT22;13446;50.926;5.332;2023-03-19T01:20:47;12.40;99.90
25554;DHT22;13446;50.926;5.332;2023-03-19T01:23:13;12.30;99.90
25554;DHT22;13446;50.926;5.332;2023-03-19T01:25:39;12.50;99.90
25554;DHT22;13446;50.926;5.332;2023-03-19T01:28:04;12.50;99.90
25554;DHT22;13446;50.926;5.332;2023-03-19T01:30:31;12.60;99.90
25554;DHT22;13446;50.926;5.332;2023-03-19T01:32:57;12.50;99.90
25554;DHT22;13446;50.926;5.332;2023-03-19T01:35:22;12.40;99.90
25554;DHT22;13446;50.926;5.332;2023-03-19T01:37:48;12.50;99.90
25554;DHT22;13446;50.926;5.332;2023-03-19T01:40:14;12.60;99.90
25554;DHT22;13446;50.926;5.332;2023-03-19T01:45:34;12.80;99.90
25554;DHT22;13446;50.926;5.332;2023-03-19T01:48:00;12.70;99.90
25554;DHT22;13446;50.926;5.332;2023-03-19T01:50:27;12.50;99.90
25554;DHT22;13446;50.926;5.332;2023-03-19T01:52:53;12.50;99.90
25554;DHT22;13446;50.926;5.332;2023-03-19T01:55:18;12.50;99.90
25554;DHT22;13446;50.926;5.332;2023-03-19T01:57:44;12.50;99.90
25554;DHT22;13446;50.926;5.332;2023-03-19T02:00:10;12.40;99.90
25554;DHT22;13446;50.926;5.332;2023-03-19T02:02:36;12.60;99.90
25554;DHT22;13446;50.926;5.332;2023-03-19T02:05:07;12.70;99.90
25554;DHT22;13446;50.926;5.332;2023-03-19T02:07:34;12.70;99.90
25554;DHT22;13446;50.926;5.332;2023-03-19T02:10:01;12.70;99.90
25554;DHT22;13446;50.926;5.332;2023-03-19T02:12:27;12.70;99.90
25554;DHT22;13446;50.926;5.332;2023-03-19T02:14:53;12.80;99.90
25554;DHT22;13446;50.926;5.332;2023-03-19T02:17:20;12.90;99.90
25554;DHT22;13446;50.926;5.332;2023-03-19T02:19:52;13.00;99.90
25554;DHT22;13446;50.926;5.332;2023-03-19T02:22:22;12.90;99.90
25554;DHT22;13446;50.926;5.332;2023-03-19T02:24:52;13.00;99.90
25554;DHT22;13446;50.926;5.332;2023-03-19T02:27:20;13.00;99.90
25554;DHT22;13446;50.926;5.332;2023-03-19T02:29:46;13.00;99.90
25554;DHT22;13446;50.926;5.332;2023-03-19T02:32:12;13.00;99.90
25554;DHT22;13446;50.926;5.332;2023-03-19T02:34:38;12.90;99.90
25554;DHT22;13446;50.926;5.332;2023-03-19T02:37:05;12.90;99.90
25554;DHT22;13446;50.926;5.332;2023-03-19T02:39:33;12.90;99.90
25554;DHT22;13446;50.926;5.332;2023-03-19T02:42:00;13.00;99.90
25554;DHT22;13446;50.926;5.332;2023-03-19T02:44:26;13.10;99.90
25554;DHT22;13446;50.926;5.332;2023-03-19T02:46:52;13.10;99.90
25554;DHT22;13446;50.926;5.332;2023-03-19T02:49:17;13.00;99.90
25554;DHT22;13446;50.926;5.332;2023-03-19T02:51:43;13.00;99.90
25554;DHT22;13446;50.926;5.332;2023-03-19T02:54:08;13.00;99.90
25554;DHT22;13446;50.926;5.332;2023-03-19T02:56:34;12.90;99.90
25554;DHT22;13446;50.926;5.332;2023-03-19T02:59:00;13.00;99.90
25554;DHT22;13446;50.926;5.332;2023-03-19T03:01:26;12.90;99.90
25554;DHT22;13446;50.926;5.332;2023-03-19T03:03:51;12.80;99.90
25554;DHT22;13446;50.926;5.332;2023-03-19T03:06:17;12.90;99.90
25554;DHT22;13446;50.926;5.332;2023-03-19T03:08:42;12.90;99.90
25554;DHT22;13446;50.926;5.332;2023-03-19T03:11:08;12.90;99.90
25554;DHT22;13446;50.926;5.332;2023-03-19T03:13:34;13.00;99.90
25554;DHT22;13446;50.926;5.332;2023-03-19T03:16:00;12.90;99.90
25554;DHT22;13446;50.926;5.332;2023-03-19T03:18:26;12.80;99.90
25554;DHT22;13446;50.926;5.332;2023-03-19T03:20:51;12.80;99.90
25554;DHT22;13446;50.926;5.332;2023-03-19T03:23:18;12.80;99.90
25554;DHT22;13446;50.926;5.332;2023-03-19T03:25:43;12.80;99.90
25554;DHT22;13446;50.926;5.332;2023-03-19T03:28:09;12.90;99.90
25554;DHT22;13446;50.926;5.332;2023-03-19T03:30:35;12.90;99.90
25554;DHT22;13446;50.926;5.332;2023-03-19T03:33:01;12.80;99.90
25554;DHT22;13446;50.926;5.332;2023-03-19T03:35:27;12.90;99.90
25554;DHT22;13446;50.926;5.332;2023-03-19T03:37:52;13.00;99.90
25554;DHT22;13446;50.926;5.332;2023-03-19T03:40:17;13.00;99.90
25554;DHT22;13446;50.926;5.332;2023-03-19T03:42:43;13.00;99.90
25554;DHT22;13446;50.926;5.332;2023-03-19T03:45:09;12.90;99.90
25554;DHT22;13446;50.926;5.332;2023-03-19T03:47:35;12.80;99.90
25554;DHT22;13446;50.926;5.332;2023-03-19T03:50:01;12.70;99.90
25554;DHT22;13446;50.926;5.332;2023-03-19T03:52:28;12.90;99.90
25554;DHT22;13446;50.926;5.332;2023-03-19T03:54:58;12.90;99.90
25554;DHT22;13446;50.926;5.332;2023-03-19T03:57:24;12.90;99.90
25554;DHT22;13446;50.926;5.332;2023-03-19T03:59:50;12.90;99.90
25554;DHT22;13446;50.926;5.332;2023-03-19T04:02:15;12.80;99.90
25554;DHT22;13446;50.926;5.332;2023-03-19T04:04:41;12.70;99.90
25554;DHT22;13446;50.926;5.332;2023-03-19T04:07:07;12.70;99.90
25554;DHT22;13446;50.926;5.332;2023-03-19T04:09:33;12.70;99.90
25554;DHT22;13446;50.926;5.332;2023-03-19T04:11:58;12.70;99.90
25554;DHT22;13446;50.926;5.332;2023-03-19T04:14:25;12.70;99.90
25554;DHT22;13446;50.926;5.332;2023-03-19T04:16:50;12.60;99.90
25554;DHT22;13446;50.926;5.332;2023-03-19T04:19:16;12.60;99.90
25554;DHT22;13446;50.926;5.332;2023-03-19T04:21:41;12.70;99.90
25554;DHT22;13446;50.926;5.332;2023-03-19T04:24:07;12.70;99.90
25554;DHT22;13446;50.926;5.332;2023-03-19T04:26:35;12.80;99.90
25554;DHT22;13446;50.926;5.332;2023-03-19T04:29:01;12.70;99.90
25554;DHT22;13446;50.926;5.332;2023-03-19T04:31:26;12.60;99.90
25554;DHT22;13446;50.926;5.332;2023-03-19T04:33:52;12.60;99.90
25554;DHT22;13446;50.926;5.332;2023-03-19T04:36:19;12.50;99.90
25554;DHT22;13446;50.926;5.332;2023-03-19T04:38:45;12.50;99.90
25554;DHT22;13446;50.926;5.332;2023-03-19T04:41:12;12.40;99.90
25554;DHT22;13446;50.926;5.332;2023-03-19T04:43:38;12.50;99.90
25554;DHT22;13446;50.926;5.332;2023-03-19T04:46:04;12.50;99.90
25554;DHT22;13446;50.926;5.332;2023-03-19T04:48:31;12.40;99.90
25554;DHT22;13446;50.926;5.332;2023-03-19T04:51:03;12.40;99.90
25554;DHT22;13446;50.926;5.332;2023-03-19T04:53:28;12.40;99.90
25554;DHT22;13446;50.926;5.332;2023-03-19T04:55:54;12.40;99.90
25554;DHT22;13446;50.926;5.332;2023-03-19T04:58:20;12.40;99.90
25554;DHT22;13446;50.926;5.332;2023-03-19T05:00:46;12.40;99.90
25554;DHT22;13446;50.926;5.332;2023-03-19T05:03:15;12.30;99.90
25554;DHT22;13446;50.926;5.332;2023-03-19T05:05:41;12.30;99.90
25554;DHT22;13446;50.926;5.332;2023-03-19T05:08:07;12.30;99.90
25554;DHT22;13446;50.926;5.332;2023-03-19T05:10:34;12.20;99.90
25554;DHT22;13446;50.926;5.332;2023-03-19T05:13:00;12.20;99.90
25554;DHT22;13446;50.926;5.332;2023-03-19T05:15:25;12.20;99.90
25554;DHT22;13446;50.926;5.332;2023-03-19T05:17:51;12.20;99.90
25554;DHT22;13446;50.926;5.332;2023-03-19T05:20:17;12.30;99.90
25554;DHT22;13446;50.926;5.332;2023-03-19T05:22:43;12.30;99.90
25554;DHT22;13446;50.926;5.332;2023-03-19T05:25:10;12.20;99.90
25554;DHT22;13446;50.926;5.332;2023-03-19T05:27:36;12.40;99.90
25554;DHT22;13446;50.926;5.332;2023-03-19T05:30:02;12.30;99.90
25554;DHT22;13446;50.926;5.332;2023-03-19T05:32:28;12.40;99.90
25554;DHT22;13446;50.926;5.332;2023-03-19T05:34:54;12.40;99.90
25554;DHT22;13446;50.926;5.332;2023-03-19T05:37:20;12.40;99.90
25554;DHT22;13446;50.926;5.332;2023-03-19T05:39:46;12.40;99.90
25554;DHT22;13446;50.926;5.332;2023-03-19T05:42:11;12.40;99.90
25554;DHT22;13446;50.926;5.332;2023-03-19T05:44:37;12.40;99.90
25554;DHT22;13446;50.926;5.332;2023-03-19T05:47:02;12.50;99.90
25554;DHT22;13446;50.926;5.332;2023-03-19T05:49:28;12.40;99.90
25554;DHT22;13446;50.926;5.332;2023-03-19T05:51:53;12.40;99.90
25554;DHT22;13446;50.926;5.332;2023-03-19T05:54:19;12.50;99.90
25554;DHT22;13446;50.926;5.332;2023-03-19T05:56:45;12.50;99.90
25554;DHT22;13446;50.926;5.332;2023-03-19T05:59:10;12.50;99.90
25554;DHT22;13446;50.926;5.332;2023-03-19T06:01:36;12.50;99.90
25554;DHT22;13446;50.926;5.332;2023-03-19T06:04:01;12.50;99.90
25554;DHT22;13446;50.926;5.332;2023-03-19T06:06:27;12.50;99.90
25554;DHT22;13446;50.926;5.332;2023-03-19T06:08:52;12.40;99.90
25554;DHT22;13446;50.926;5.332;2023-03-19T06:11:18;12.40;99.90
25554;DHT22;13446;50.926;5.332;2023-03-19T06:13:44;12.30;99.90
25554;DHT22;13446;50.926;5.332;2023-03-19T06:16:10;12.20;99.90
25554;DHT22;13446;50.926;5.332;2023-03-19T06:18:36;12.30;99.90
25554;DHT22;13446;50.926;5.332;2023-03-19T06:21:05;12.30;99.90
25554;DHT22;13446;50.926;5.332;2023-03-19T06:23:31;12.40;99.90
25554;DHT22;13446;50.926;5.332;2023-03-19T06:25:56;12.40;99.90
25554;DHT22;13446;50.926;5.332;2023-03-19T06:28:22;12.30;99.90
25554;DHT22;13446;50.926;5.332;2023-03-19T06:30:47;12.40;99.90
25554;DHT22;13446;50.926;5.332;2023-03-19T06:33:13;12.50;99.90
25554;DHT22;13446;50.926;5.332;2023-03-19T06:35:39;12.60;99.90
25554;DHT22;13446;50.926;5.332;2023-03-19T06:38:05;12.60;99.90
25554;DHT22;13446;50.926;5.332;2023-03-19T06:40:31;12.70;99.90
25554;DHT22;13446;50.926;5.332;2023-03-19T06:42:57;12.60;99.90
25554;DHT22;13446;50.926;5.332;2023-03-19T06:45:22;12.60;99.90
25554;DHT22;13446;50.926;5.332;2023-03-19T06:47:48;12.70;99.90
25554;DHT22;13446;50.926;5.332;2023-03-19T06:50:15;12.70;99.90
25554;DHT22;13446;50.926;5.332;2023-03-19T06:52:42;12.80;99.90
25554;DHT22;13446;50.926;5.332;2023-03-19T06:55:08;12.80;99.90
25554;DHT22;13446;50.926;5.332;2023-03-19T06:57:34;12.90;99.90
25554;DHT22;13446;50.926;5.332;2023-03-19T07:00:00;12.90;99.90
25554;DHT22;13446;50.926;5.332;2023-03-19T07:02:25;12.90;99.90
25554;DHT22;13446;50.926;5.332;2023-03-19T07:04:51;13.00;99.90
25554;DHT22;13446;50.926;5.332;2023-03-19T07:07:17;13.10;99.90
25554;DHT22;13446;50.926;5.332;2023-03-19T07:09:42;13.20;99.90
25554;DHT22;13446;50.926;5.332;2023-03-19T07:12:08;13.30;99.90
25554;DHT22;13446;50.926;5.332;2023-03-19T07:14:33;13.30;99.90
25554;DHT22;13446;50.926;5.332;2023-03-19T07:17:00;13.40;99.90
25554;DHT22;13446;50.926;5.332;2023-03-19T07:19:26;13.40;99.90
25554;DHT22;13446;50.926;5.332;2023-03-19T07:21:51;14.00;99.90
25554;DHT22;13446;50.926;5.332;2023-03-19T07:24:17;14.80;99.90
25554;DHT22;13446;50.926;5.332;2023-03-19T07:26:43;16.30;99.90
25554;DHT22;13446;50.926;5.332;2023-03-19T07:29:08;18.00;99.90
25554;DHT22;13446;50.926;5.332;2023-03-19T07:31:34;19.30;99.90
25554;DHT22;13446;50.926;5.332;2023-03-19T07:34:00;20.40;99.90
25554;DHT22;13446;50.926;5.332;2023-03-19T07:36:25;21.00;99.90
25554;DHT22;13446;50.926;5.332;2023-03-19T07:38:51;21.70;99.90
25554;DHT22;13446;50.926;5.332;2023-03-19T07:41:17;22.60;99.90
25554;DHT22;13446;50.926;5.332;2023-03-19T07:43:42;22.80;99.90
25554;DHT22;13446;50.926;5.332;2023-03-19T07:46:08;23.30;99.90
25554;DHT22;13446;50.926;5.332;2023-03-19T07:48:33;24.00;99.90
25554;DHT22;13446;50.926;5.332;2023-03-19T07:50:59;25.00;99.70
25554;DHT22;13446;50.926;5.332;2023-03-19T07:53:24;24.90;97.90
25554;DHT22;13446;50.926;5.332;2023-03-19T07:55:50;24.10;97.60
25554;DHT22;13446;50.926;5.332;2023-03-19T07:58:16;23.40;98.80
25554;DHT22;13446;50.926;5.332;2023-03-19T08:00:42;22.00;99.90
25554;DHT22;13446;50.926;5.332;2023-03-19T08:03:09;21.30;99.90
25554;DHT22;13446;50.926;5.332;2023-03-19T08:05:34;20.60;99.90
25554;DHT22;13446;50.926;5.332;2023-03-19T08:08:00;20.20;99.90
25554;DHT22;13446;50.926;5.332;2023-03-19T08:10:26;20.00;99.90
25554;DHT22;13446;50.926;5.332;2023-03-19T08:12:51;19.70;99.90
25554;DHT22;13446;50.926;5.332;2023-03-19T08:15:17;19.30;99.90
25554;DHT22;13446;50.926;5.332;2023-03-19T08:17:42;19.10;99.90
25554;DHT22;13446;50.926;5.332;2023-03-19T08:20:12;18.80;99.90
25554;DHT22;13446;50.926;5.332;2023-03-19T08:22:38;18.90;99.90
25554;DHT22;13446;50.926;5.332;2023-03-19T08:25:05;19.40;99.90
25554;DHT22;13446;50.926;5.332;2023-03-19T08:27:31;19.80;99.90
25554;DHT22;13446;50.926;5.332;2023-03-19T08:29:59;21.00;99.90
25554;DHT22;13446;50.926;5.332;2023-03-19T08:32:25;22.10;99.90
25554;DHT22;13446;50.926;5.332;2023-03-19T08:34:51;22.20;99.90
25554;DHT22;13446;50.926;5.332;2023-03-19T08:37:17;22.60;99.90
25554;DHT22;13446;50.926;5.332;2023-03-19T08:39:43;23.40;99.90
25554;DHT22;13446;50.926;5.332;2023-03-19T08:42:08;23.60;98.50
25554;DHT22;13446;50.926;5.332;2023-03-19T08:44:34;23.90;97.80
25554;DHT22;13446;50.926;5.332;2023-03-19T08:46:59;24.10;97.20
25554;DHT22;13446;50.926;5.332;2023-03-19T08:49:25;24.00;97.10
25554;DHT22;13446;50.926;5.332;2023-03-19T08:51:51;23.50;95.50
25554;DHT22;13446;50.926;5.332;2023-03-19T08:54:16;23.80;96.70
25554;DHT22;13446;50.926;5.332;2023-03-19T08:56:42;23.00;95.90
25554;DHT22;13446;50.926;5.332;2023-03-19T08:59:07;22.10;97.70
25554;DHT22;13446;50.926;5.332;2023-03-19T09:01:33;21.60;98.90
25554;DHT22;13446;50.926;5.332;2023-03-19T09:03:58;20.80;99.90
25554;DHT22;13446;50.926;5.332;2023-03-19T09:06:24;19.90;99.90
25554;DHT22;13446;50.926;5.332;2023-03-19T09:08:50;19.40;99.90
25554;DHT22;13446;50.926;5.332;2023-03-19T09:11:15;18.70;99.90
25554;DHT22;13446;50.926;5.332;2023-03-19T09:13:42;18.50;99.90
25554;DHT22;13446;50.926;5.332;2023-03-19T09:16:07;18.40;99.90
25554;DHT22;13446;50.926;5.332;2023-03-19T09:18:33;18.20;99.90
25554;DHT22;13446;50.926;5.332;2023-03-19T09:20:59;18.30;99.90
25554;DHT22;13446;50.926;5.332;2023-03-19T09:23:25;18.10;99.90
25554;DHT22;13446;50.926;5.332;2023-03-19T09:25:50;17.80;99.90
25554;DHT22;13446;50.926;5.332;2023-03-19T09:28:16;18.00;99.90
25554;DHT22;13446;50.926;5.332;2023-03-19T09:30:43;18.50;99.90
25554;DHT22;13446;50.926;5.332;2023-03-19T09:33:09;19.90;99.90
25554;DHT22;13446;50.926;5.332;2023-03-19T09:35:35;21.00;99.90
25554;DHT22;13446;50.926;5.332;2023-03-19T09:38:02;21.50;99.90
25554;DHT22;13446;50.926;5.332;2023-03-19T09:40:29;21.90;99.90
25554;DHT22;13446;50.926;5.332;2023-03-19T09:43:15;21.60;99.90
25554;DHT22;13446;50.926;5.332;2023-03-19T09:45:45;21.10;99.90
25554;DHT22;13446;50.926;5.332;2023-03-19T09:48:13;21.60;99.90
25554;DHT22;13446;50.926;5.332;2023-03-19T09:50:39;23.20;98.20
25554;DHT22;13446;50.926;5.332;2023-03-19T09:53:07;24.60;92.80
25554;DHT22;13446;50.926;5.332;2023-03-19T09:55:41;25.90;90.00
25554;DHT22;13446;50.926;5.332;2023-03-19T09:58:15;26.00;80.10
25554;DHT22;13446;50.926;5.332;2023-03-19T10:00:41;26.50;74.90
25554;DHT22;13446;50.926;5.332;2023-03-19T10:06:00;25.60;73.70
25554;DHT22;13446;50.926;5.332;2023-03-19T10:08:36;24.90;77.40
25554;DHT22;13446;50.926;5.332;2023-03-19T10:16:11;25.00;81.00
25554;DHT22;13446;50.926;5.332;2023-03-19T10:18:38;26.10;78.40
25554;DHT22;13446;50.926;5.332;2023-03-19T10:21:10;27.40;71.50
25554;DHT22;13446;50.926;5.332;2023-03-19T10:23:43;29.10;65.90
25554;DHT22;13446;50.926;5.332;2023-03-19T10:26:12;29.40;59.60
25554;DHT22;13446;50.926;5.332;2023-03-19T10:28:38;27.70;58.90
25554;DHT22;13446;50.926;5.332;2023-03-19T10:33:44;25.00;71.80
25554;DHT22;13446;50.926;5.332;2023-03-19T10:36:13;25.40;70.30
25554;DHT22;13446;50.926;5.332;2023-03-19T10:38:41;26.30;71.50
25554;DHT22;13446;50.926;5.332;2023-03-19T10:43:46;29.30;60.00
25554;DHT22;13446;50.926;5.332;2023-03-19T10:46:14;30.60;53.80
25554;DHT22;13446;50.926;5.332;2023-03-19T10:48:42;30.60;52.30
25554;DHT22;13446;50.926;5.332;2023-03-19T10:51:09;29.30;53.30
25554;DHT22;13446;50.926;5.332;2023-03-19T10:53:37;26.90;56.50
25554;DHT22;13446;50.926;5.332;2023-03-19T10:56:06;25.90;59.30
25554;DHT22;13446;50.926;5.332;2023-03-19T10:58:33;26.50;57.90
25554;DHT22;13446;50.926;5.332;2023-03-19T11:03:35;29.20;53.10
25554;DHT22;13446;50.926;5.332;2023-03-19T11:06:02;29.80;52.70
25554;DHT22;13446;50.926;5.332;2023-03-19T11:08:29;30.00;49.80
25554;DHT22;13446;50.926;5.332;2023-03-19T11:10:54;30.30;49.50
25554;DHT22;13446;50.926;5.332;2023-03-19T11:13:24;29.30;50.50
25554;DHT22;13446;50.926;5.332;2023-03-19T11:15:50;27.30;53.50
25554;DHT22;13446;50.926;5.332;2023-03-19T11:18:20;25.30;58.60
25554;DHT22;13446;50.926;5.332;2023-03-19T11:20:52;24.80;65.70
25554;DHT22;13446;50.926;5.332;2023-03-19T11:23:19;25.90;63.80
25554;DHT22;13446;50.926;5.332;2023-03-19T11:25:50;27.10;59.30
25554;DHT22;13446;50.926;5.332;2023-03-19T11:28:19;28.10;55.50
25554;DHT22;13446;50.926;5.332;2023-03-19T11:36:18;29.00;51.50
25554;DHT22;13446;50.926;5.332;2023-03-19T11:51:27;28.20;49.60
25554;DHT22;13446;50.926;5.332;2023-03-19T11:54:04;27.40;50.80
25554;DHT22;13446;50.926;5.332;2023-03-19T11:59:20;29.40;51.40
25554;DHT22;13446;50.926;5.332;2023-03-19T12:04:43;31.10;47.40
25554;DHT22;13446;50.926;5.332;2023-03-19T12:12:25;31.90;43.80
25554;DHT22;13446;50.926;5.332;2023-03-19T12:15:08;31.80;43.70
25554;DHT22;13446;50.926;5.332;2023-03-19T12:25:40;29.40;47.10
25554;DHT22;13446;50.926;5.332;2023-03-19T12:28:25;28.50;47.70
25554;DHT22;13446;50.926;5.332;2023-03-19T12:31:07;26.80;50.60
25554;DHT22;13446;50.926;5.332;2023-03-19T12:33:43;25.70;53.30
25554;DHT22;13446;50.926;5.332;2023-03-19T12:36:12;25.30;55.70
25554;DHT22;13446;50.926;5.332;2023-03-19T12:38:40;24.80;57.80
25554;DHT22;13446;50.926;5.332;2023-03-19T12:41:11;24.70;59.30
25554;DHT22;13446;50.926;5.332;2023-03-19T12:43:48;24.20;59.80
25554;DHT22;13446;50.926;5.332;2023-03-19T12:51:24;25.50;58.80
25554;DHT22;13446;50.926;5.332;2023-03-19T12:54:09;26.50;56.50
25554;DHT22;13446;50.926;5.332;2023-03-19T12:56:42;27.00;55.20
25554;DHT22;13446;50.926;5.332;2023-03-19T13:01:36;28.60;52.50
25554;DHT22;13446;50.926;5.332;2023-03-19T13:06:40;29.70;48.90
25554;DHT22;13446;50.926;5.332;2023-03-19T13:11:59;27.40;50.30
25554;DHT22;13446;50.926;5.332;2023-03-19T13:14:37;26.10;53.40
25554;DHT22;13446;50.926;5.332;2023-03-19T13:19:52;24.00;56.40
25554;DHT22;13446;50.926;5.332;2023-03-19T13:22:25;23.30;58.50
25554;DHT22;13446;50.926;5.332;2023-03-19T13:24:52;23.00;63.30
25554;DHT22;13446;50.926;5.332;2023-03-19T13:27:36;22.50;65.20
25554;DHT22;13446;50.926;5.332;2023-03-19T13:30:06;22.00;66.70
25554;DHT22;13446;50.926;5.332;2023-03-19T13:37:41;20.60;80.90
25554;DHT22;13446;50.926;5.332;2023-03-19T13:42:55;19.50;87.70
25554;DHT22;13446;50.926;5.332;2023-03-19T13:45:34;19.70;90.70
25554;DHT22;13446;50.926;5.332;2023-03-19T13:51:22;19.90;91.60
25554;DHT22;13446;50.926;5.332;2023-03-19T13:56:19;19.50;92.30
25554;DHT22;13446;50.926;5.332;2023-03-19T13:59:20;19.40;93.00
25554;DHT22;13446;50.926;5.332;2023-03-19T14:01:36;18.80;94.70
25554;DHT22;13446;50.926;5.332;2023-03-19T14:04:03;18.50;96.00
25554;DHT22;13446;50.926;5.332;2023-03-19T14:06:37;18.60;96.70
25554;DHT22;13446;50.926;5.332;2023-03-19T14:09:04;18.50;97.80
25554;DHT22;13446;50.926;5.332;2023-03-19T14:11:31;18.60;97.90
25554;DHT22;13446;50.926;5.332;2023-03-19T14:14:04;18.20;99.50
25554;DHT22;13446;50.926;5.332;2023-03-19T14:16:35;17.90;99.90
25554;DHT22;13446;50.926;5.332;2023-03-19T14:19:02;17.90;99.90
25554;DHT22;13446;50.926;5.332;2023-03-19T14:21:39;17.80;99.90
25554;DHT22;13446;50.926;5.332;2023-03-19T14:27:00;17.40;99.90
25554;DHT22;13446;50.926;5.332;2023-03-19T14:29:27;17.20;99.90
25554;DHT22;13446;50.926;5.332;2023-03-19T14:31:54;17.30;99.90
25554;DHT22;13446;50.926;5.332;2023-03-19T14:34:25;16.90;99.90
25554;DHT22;13446;50.926;5.332;2023-03-19T14:39:21;17.30;99.90
25554;DHT22;13446;50.926;5.332;2023-03-19T14:41:48;17.40;99.90
25554;DHT22;13446;50.926;5.332;2023-03-19T14:44:26;17.40;99.90
25554;DHT22;13446;50.926;5.332;2023-03-19T14:54:47;17.50;99.90
25554;DHT22;13446;50.926;5.332;2023-03-19T14:57:18;17.10;99.90
25554;DHT22;13446;50.926;5.332;2023-03-19T14:59:44;17.20;99.90
25554;DHT22;13446;50.926;5.332;2023-03-19T15:02:43;17.30;99.90
25554;DHT22;13446;50.926;5.332;2023-03-19T15:05:21;17.30;99.90
25554;DHT22;13446;50.926;5.332;2023-03-19T15:07:48;17.10;99.90
25554;DHT22;13446;50.926;5.332;2023-03-19T15:10:18;17.10;99.90
25554;DHT22;13446;50.926;5.332;2023-03-19T15:18:00;17.30;99.90
25554;DHT22;13446;50.926;5.332;2023-03-19T15:20:28;17.50;99.90
25554;DHT22;13446;50.926;5.332;2023-03-19T15:22:59;17.60;99.90
25554;DHT22;13446;50.926;5.332;2023-03-19T15:25:26;17.30;99.90
25554;DHT22;13446;50.926;5.332;2023-03-19T15:30:29;17.00;99.90
25554;DHT22;13446;50.926;5.332;2023-03-19T15:32:56;16.60;99.90
25554;DHT22;13446;50.926;5.332;2023-03-19T15:35:23;16.70;99.90
25554;DHT22;13446;50.926;5.332;2023-03-19T15:37:52;17.00;99.90
25554;DHT22;13446;50.926;5.332;2023-03-19T15:40:19;16.80;99.90
25554;DHT22;13446;50.926;5.332;2023-03-19T15:42:46;16.60;99.90
25554;DHT22;13446;50.926;5.332;2023-03-19T15:45:12;16.60;99.90
25554;DHT22;13446;50.926;5.332;2023-03-19T15:47:47;16.60;99.90
25554;DHT22;13446;50.926;5.332;2023-03-19T15:50:17;16.70;99.90
25554;DHT22;13446;50.926;5.332;2023-03-19T15:52:45;16.90;99.90
25554;DHT22;13446;50.926;5.332;2023-03-19T15:55:12;17.00;99.90
25554;DHT22;13446;50.926;5.332;2023-03-19T15:57:38;17.00;99.90
25554;DHT22;13446;50.926;5.332;2023-03-19T16:00:08;17.00;99.90
25554;DHT22;13446;50.926;5.332;2023-03-19T16:02:34;16.90;99.90
25554;DHT22;13446;50.926;5.332;2023-03-19T16:05:00;16.80;99.90
25554;DHT22;13446;50.926;5.332;2023-03-19T16:09:52;17.00;99.90
25554;DHT22;13446;50.926;5.332;2023-03-19T16:12:37;17.10;99.90
25554;DHT22;13446;50.926;5.332;2023-03-19T16:17:47;16.90;99.90
25554;DHT22;13446;50.926;5.332;2023-03-19T16:20:14;16.90;99.90
25554;DHT22;13446;50.926;5.332;2023-03-19T16:22:39;16.70;99.90
25554;DHT22;13446;50.926;5.332;2023-03-19T16:25:13;16.40;99.90
25554;DHT22;13446;50.926;5.332;2023-03-19T16:27:39;16.20;99.90
25554;DHT22;13446;50.926;5.332;2023-03-19T16:30:15;16.10;99.90
25554;DHT22;13446;50.926;5.332;2023-03-19T16:32:43;16.30;99.90
25554;DHT22;13446;50.926;5.332;2023-03-19T16:35:12;16.30;99.90
25554;DHT22;13446;50.926;5.332;2023-03-19T16:37:40;16.10;99.90
25554;DHT22;13446;50.926;5.332;2023-03-19T16:42:47;16.30;99.90
25554;DHT22;13446;50.926;5.332;2023-03-19T16:47:43;16.20;99.90
25554;DHT22;13446;50.926;5.332;2023-03-19T16:50:09;16.20;99.90
25554;DHT22;13446;50.926;5.332;2023-03-19T16:52:35;16.10;99.90
25554;DHT22;13446;50.926;5.332;2023-03-19T16:55:01;16.00;99.90
25554;DHT22;13446;50.926;5.332;2023-03-19T16:57:27;15.90;99.90
25554;DHT22;13446;50.926;5.332;2023-03-19T16:59:53;15.90;99.90
25554;DHT22;13446;50.926;5.332;2023-03-19T17:02:19;15.90;99.90
25554;DHT22;13446;50.926;5.332;2023-03-19T17:04:45;15.80;99.90
25554;DHT22;13446;50.926;5.332;2023-03-19T17:07:10;15.70;99.90
25554;DHT22;13446;50.926;5.332;2023-03-19T17:09:36;15.60;99.90
25554;DHT22;13446;50.926;5.332;2023-03-19T17:12:03;15.50;99.90
25554;DHT22;13446;50.926;5.332;2023-03-19T17:14:29;15.40;99.90
25554;DHT22;13446;50.926;5.332;2023-03-19T17:16:55;15.50;99.90
25554;DHT22;13446;50.926;5.332;2023-03-19T17:19:25;15.60;99.90
25554;DHT22;13446;50.926;5.332;2023-03-19T17:21:51;15.50;99.90
25554;DHT22;13446;50.926;5.332;2023-03-19T17:24:20;15.40;99.90
25554;DHT22;13446;50.926;5.332;2023-03-19T17:26:46;15.30;99.90